KMJX/MJX METAR and TAF weather

Enter ICAO airport designator
Station Type Date Time Source
KMJX METAR 2019/12/16 05:56 UTC NOAA

KMJX 160556Z AUTO 27003KT 10SM OVC110 01/M05 A3021 RMK AO2 SLP233 T00111050 10044 20000 51016 FZRANO


Station Type Date Time Source
KMJX Decoded METAR 2019/12/16 05:56 UTC NOAA

Station name not available
Dec 16, 2019 - 12:56 AM EST / 2019.12.16 0556 UTC
Wind: from the W (270 degrees) at 3 MPH (3 KT):0
Visibility: 10 mile(s):0
Sky conditions: overcast
Temperature: 34.0 F (1.1 C)
Dew Point: 23.0 F (-5.0 C)
Relative Humidity: 63%
Pressure (altimeter): 30.21 in. Hg (1023 hPa)
Pressure tendency: 0.05 inches (1.6 hPa) higher than three hours ago
ob: KMJX 160556Z AUTO 27003KT 10SM OVC110 01/M05 A3021 RMK AO2 SLP233 T00111050 10044 20000 51016 FZRANO
cycle: 6

Station Type Date Time Source
KMJX TAF UTC NOAA

Error!

Example: see airport list